X  Cerrar Datos meteorológicos de aviación METAR     EHKD De Kooy Airport
Temperatura
12°C Temperatura
8°C Punto de rocío
77% Humedad



Viento
16 KM/H
10 MPH
4 M/S
9 NUDO



240°
OSO
Condiciones actuales

Llovizna, Lluvia Llovizna, Lluvia
Presión 1016.93 (hPa) - 30.03 (inHg)
Visibilidad 6 (milla) - 9.7 (km)
Aeropuerto
Código de aeropuerto EHKD

localidad: De Kooy Airport
Distancia: 34 (km)

Metar:
EHKD 130338Z AUTO 24009KT 210V270 9999 DZRA FEW015CB SCT026 OVC048 12/08 Q1017 BLU

Hora: 13-06-2024 05:38 CEST